Terminal Aerodrome Forecast
Issued by NWS Jackson, MS

Home | Current Version | Previous Version | Text Only | Print | Product List | Glossary On
Versions: 1 2 3 4 5 6 7 8 9 10 11 12 13
000
FTUS44 KJAN 260559 RRA
TAFJAN
TAF
KJAN 260559Z 2606/2706 00000KT P6SM SCT250
     FM260900 00000KT 5SM BR FEW050 FEW250
     FM261100 00000KT 3SM BR FEW050
     FM261330 09003KT P6SM FEW020 SCT250
     FM261900 08007KT P6SM VCTS SCT030 BKN050CB
     FM270000 05004KT P6SM FEW050 SCT250=

USA.gov is the U.S. government's official web portal to all federal, state and local government web resources and services.